Observation data for Seminole on 03/24/2019      Previous  Date  Next       Current Mesonet Observations  Soil Data  Daily Summary Page  Observations in Plain Language
KSM1 240500Z 23005KT 12/M06 A3003 RMK A01 T01191058  RH  029%=      5-min Rain = 0
KSM1 240505Z 23005KT 12/M06 A3003 RMK A01 T01161057  RH  029%=      5-min Rain = 0
KSM1 240510Z 23006KT 12/M06 A3003 RMK A01 T01151056  RH  030%=      5-min Rain = 0
KSM1 240515Z 23006KT 12/M06 A3003 RMK A01 T01151060  RH  029%=      5-min Rain = 0
KSM1 240520Z 22007KT 12/M06 A3003 RMK A01 T01171062  RH  028%=      5-min Rain = 0
KSM1 240525Z 22007KT 12/M07 A3003 RMK A01 T01221066  RH  026%=      5-min Rain = 0
KSM1 240530Z 23006KT 13/M07 A3002 RMK A01 T01291071  RH  024%=      5-min Rain = 0
KSM1 240535Z 23006KT 13/M07 A3002 RMK A01 T01321072  RH  023%=      5-min Rain = 0
KSM1 240540Z 24006KT 13/M07 A3003 RMK A01 T01321072  RH  024%=      5-min Rain = 0
KSM1 240545Z 24007KT 13/M07 A3002 RMK A01 T01281067  RH  025%=      5-min Rain = 0
KSM1 240550Z 24007KT 12/M07 A3002 RMK A01 T01211065  RH  027%=      5-min Rain = 0
KSM1 240555Z 24007KT 12/M07 A3002 RMK A01 T01181065  RH  027%=      5-min Rain = 0
KSM1 240600Z 24008KT 12/M07 A3002 RMK A01 T01201067  RH  026%=      5-min Rain = 0
KSM1 240605Z 25009KT 12/M07 A3002 RMK A01 T01221067  RH  026%=      5-min Rain = 0
KSM1 240610Z 24009KT 12/M07 A3002 RMK A01 T01221066  RH  026%=      5-min Rain = 0
KSM1 240615Z 25007KT 12/M06 A3002 RMK A01 T01171059  RH  029%=      5-min Rain = 0
KSM1 240620Z 24008KT 11/M06 A3002 RMK A01 T01121059  RH  030%=      5-min Rain = 0
KSM1 240625Z 24008KT 11/M06 A3001 RMK A01 T01131062  RH  029%=      5-min Rain = 0
KSM1 240630Z 24008KT 12/M07 A3001 RMK A01 T01161067  RH  027%=      5-min Rain = 0
KSM1 240635Z 24008KT 12/M07 A3001 RMK A01 T01201071  RH  026%=      5-min Rain = 0
KSM1 240640Z 25009KT 12/M07 A3001 RMK A01 T01221072  RH  025%=      5-min Rain = 0
KSM1 240645Z 25009KT 12/M07 A3001 RMK A01 T01231073  RH  025%=      5-min Rain = 0
KSM1 240650Z 25009KT 12/M07 A3001 RMK A01 T01221069  RH  026%=      5-min Rain = 0
KSM1 240655Z 25008KT 12/M07 A3001 RMK A01 T01191069  RH  026%=      5-min Rain = 0
KSM1 240700Z 25008KT 12/M07 A3001 RMK A01 T01201070  RH  026%=      5-min Rain = 0
KSM1 240705Z 25008KT 12/M07 A3001 RMK A01 T01181067  RH  027%=      5-min Rain = 0
KSM1 240710Z 25007KT 12/M07 A3001 RMK A01 T01181067  RH  027%=      5-min Rain = 0
KSM1 240715Z 25007KT 12/M07 A3001 RMK A01 T01181066  RH  027%=      5-min Rain = 0
KSM1 240720Z 25007KT 12/M07 A3001 RMK A01 T01151065  RH  028%=      5-min Rain = 0
KSM1 240725Z 25007KT 11/M06 A3001 RMK A01 T01111063  RH  029%=      5-min Rain = 0
KSM1 240730Z 25007KT 11/M07 A3001 RMK A01 T01101065  RH  029%=      5-min Rain = 0
KSM1 240735Z 25008KT 11/M07 A3001 RMK A01 T01111066  RH  028%=      5-min Rain = 0
KSM1 240740Z 25007KT 11/M07 A3001 RMK A01 T01131066  RH  028%=      5-min Rain = 0
KSM1 240745Z 26007KT 12/M07 A3001 RMK A01 T01171070  RH  026%=      5-min Rain = 0
KSM1 240750Z 26006KT 12/M07 A3002 RMK A01 T01151068  RH  027%=      5-min Rain = 0
KSM1 240755Z 26006KT 11/M07 A3002 RMK A01 T01131067  RH  028%=      5-min Rain = 0
KSM1 240800Z 26005KT 11/M06 A3002 RMK A01 T01081063  RH  029%=      5-min Rain = 0
KSM1 240805Z 26005KT 10/M06 A3002 RMK A01 T01011057  RH  032%=      5-min Rain = 0
KSM1 240810Z 26006KT 10/M06 A3002 RMK A01 T00951055  RH  034%=      5-min Rain = 0
KSM1 240815Z 26005KT 09/M05 A3002 RMK A01 T00921052  RH  036%=      5-min Rain = 0
KSM1 240820Z 26006KT 09/M05 A3002 RMK A01 T00891050  RH  037%=      5-min Rain = 0
KSM1 240825Z 26006KT 09/M05 A3002 RMK A01 T00921054  RH  035%=      5-min Rain = 0
KSM1 240830Z 26006KT 10/M06 A3001 RMK A01 T00971059  RH  033%=      5-min Rain = 0
KSM1 240835Z 26007KT 10/M06 A3001 RMK A01 T01041063  RH  030%=      5-min Rain = 0
KSM1 240840Z 26007KT 10/M06 A3001 RMK A01 T01021060  RH  031%=      5-min Rain = 0
KSM1 240845Z 26007KT 10/M06 A3001 RMK A01 T01001060  RH  032%=      5-min Rain = 0
KSM1 240850Z 26008KT 10/M06 A3001 RMK A01 T00991059  RH  032%=      5-min Rain = 0
KSM1 240855Z 26009KT 10/M06 A3001 RMK A01 T01031064  RH  030%=      5-min Rain = 0
KSM1 240900Z 26008KT 11/M07 A3001 RMK A01 T01121070  RH  027%=      5-min Rain = 0
KSM1 240905Z 26009KT 11/M07 A3001 RMK A01 T01141070  RH  027%=      5-min Rain = 0
KSM1 240910Z 26008KT 11/M07 A3001 RMK A01 T01141069  RH  027%=      5-min Rain = 0
KSM1 240915Z 22007KT 10/M06 A3001 RMK A01 T01021057  RH  032%=      5-min Rain = 0
KSM1 240920Z 22005KT 09/M06 A3002 RMK A01 T00911059  RH  034%=      5-min Rain = 0
KSM1 240925Z 21006KT 09/M06 A3002 RMK A01 T00911059  RH  034%=      5-min Rain = 0
KSM1 240930Z 22007KT 09/M06 A3001 RMK A01 T00931061  RH  033%=      5-min Rain = 0
KSM1 240935Z 21007KT 10/M06 A3002 RMK A01 T00961061  RH  033%=      5-min Rain = 0
KSM1 240940Z 22008KT 09/M06 A3002 RMK A01 T00941059  RH  033%=      5-min Rain = 0
KSM1 240945Z 22009KT 09/M06 A3002 RMK A01 T00921058  RH  034%=      5-min Rain = 0
KSM1 240950Z 22009KT 09/M06 A3002 RMK A01 T00941059  RH  033%=      5-min Rain = 0
KSM1 240955Z 22008KT 09/M06 A3002 RMK A01 T00931058  RH  034%=      5-min Rain = 0
KSM1 241000Z 23006KT 09/M06 A3002 RMK A01 T00931059  RH  034%=      5-min Rain = 0
KSM1 241005Z 23004KT 10/M06 A3002 RMK A01 T00961061  RH  033%=      5-min Rain = 0
KSM1 241010Z 24003KT 10/M06 A3002 RMK A01 T00951060  RH  033%=      5-min Rain = 0
KSM1 241015Z 23003KT 09/M06 A3002 RMK A01 T00931059  RH  034%=      5-min Rain = 0
KSM1 241020Z 24005KT 09/M06 A3002 RMK A01 T00931058  RH  034%=      5-min Rain = 0
KSM1 241025Z 24006KT 10/M06 A3003 RMK A01 T00961059  RH  033%=      5-min Rain = 0
KSM1 241030Z 24005KT 10/M06 A3003 RMK A01 T00981058  RH  033%=      5-min Rain = 0
KSM1 241035Z 24005KT 10/M06 A3003 RMK A01 T00961057  RH  034%=      5-min Rain = 0
KSM1 241040Z 25005KT 09/M06 A3003 RMK A01 T00931056  RH  034%=      5-min Rain = 0
KSM1 241045Z 26004KT 09/M05 A3003 RMK A01 T00911052  RH  036%=      5-min Rain = 0
KSM1 241050Z 26005KT 09/M05 A3003 RMK A01 T00881051  RH  037%=      5-min Rain = 0
KSM1 241055Z 25005KT 09/M05 A3003 RMK A01 T00881051  RH  037%=      5-min Rain = 0
KSM1 241100Z 26005KT 09/M05 A3003 RMK A01 T00881053  RH  036%=      5-min Rain = 0
KSM1 241105Z 26006KT 09/M06 A3003 RMK A01 T00911058  RH  035%=      5-min Rain = 0
KSM1 241110Z 25005KT 09/M06 A3003 RMK A01 T00941057  RH  034%=      5-min Rain = 0
KSM1 241115Z 25005KT 09/M06 A3003 RMK A01 T00921055  RH  035%=      5-min Rain = 0
KSM1 241120Z 25005KT 09/M05 A3003 RMK A01 T00871052  RH  037%=      5-min Rain = 0
KSM1 241125Z 25004KT 09/M05 A3003 RMK A01 T00851050  RH  038%=      5-min Rain = 0
KSM1 241130Z 24005KT 08/M04 A3003 RMK A01 T00841039  RH  042%=      5-min Rain = 0
KSM1 241135Z 25005KT 08/M04 A3003 RMK A01 T00831036  RH  043%=      5-min Rain = 0
KSM1 241140Z 24005KT 08/M04 A3003 RMK A01 T00831037  RH  043%=      5-min Rain = 0
KSM1 241145Z 24004KT 08/M03 A3003 RMK A01 T00801034  RH  045%=      5-min Rain = 0
KSM1 241150Z 25003KT 08/M03 A3003 RMK A01 T00771029  RH  047%=      5-min Rain = 0
KSM1 241155Z 24004KT 08/M03 A3003 RMK A01 T00761026  RH  049%=      5-min Rain = 0
KSM1 241200Z 25004KT 07/M02 A3003 RMK A01 T00741022  RH  051%=      5-min Rain = 0
KSM1 241205Z 24005KT 07/M01 A3003 RMK A01 T00721014  RH  055%=      5-min Rain = 0
KSM1 241210Z 24007KT 07/M00 A3003 RMK A01 T00741004  RH  058%=      5-min Rain = 0
KSM1 241215Z 24006KT 08/00 A3003 RMK A01 T00760001  RH  060%=      5-min Rain = 0
KSM1 241220Z 25006KT 08/00 A3003 RMK A01 T00750001  RH  060%=      5-min Rain = 0
KSM1 241225Z 25007KT 08/00 A3003 RMK A01 T00750002  RH  061%=      5-min Rain = 0
KSM1 241230Z 25008KT 07/01 A3003 RMK A01 T00740007  RH  063%=      5-min Rain = 0
KSM1 241235Z 24007KT 07/01 A3003 RMK A01 T00740011  RH  065%=      5-min Rain = 0
KSM1 241240Z 24008KT 08/02 A3003 RMK A01 T00750015  RH  066%=      5-min Rain = 0
KSM1 241245Z 24008KT 08/02 A3003 RMK A01 T00780017  RH  066%=      5-min Rain = 0
KSM1 241250Z 24008KT 08/02 A3003 RMK A01 T00780018  RH  067%=      5-min Rain = 0
KSM1 241255Z 24008KT 08/02 A3003 RMK A01 T00790020  RH  067%=      5-min Rain = 0
KSM1 241300Z 24008KT 08/02 A3003 RMK A01 T00790021  RH  068%=      5-min Rain = 0
KSM1 241305Z 25008KT 08/02 A3004 RMK A01 T00800022  RH  068%=      5-min Rain = 0
KSM1 241310Z 25008KT 08/02 A3004 RMK A01 T00790023  RH  068%=      5-min Rain = 0
KSM1 241315Z 26009KT 08/02 A3004 RMK A01 T00820024  RH  068%=      5-min Rain = 0
KSM1 241320Z 26008KT 09/02 A3004 RMK A01 T00850023  RH  066%=      5-min Rain = 0
KSM1 241325Z 25008KT 09/03 A3004 RMK A01 T00870025  RH  066%=      5-min Rain = 0
KSM1 241330Z 25007KT 09/03 A3004 RMK A01 T00870026  RH  067%=      5-min Rain = 0
KSM1 241335Z 26007KT 09/03 A3004 RMK A01 T00860027  RH  068%=      5-min Rain = 0
KSM1 241340Z 33009G15KT 09/03 A3005 RMK A01 T00850025  RH  067%=      5-min Rain = 0
KSM1 241345Z 33012KT 09/01 A3006 RMK A01 T00920010  RH  058%=      5-min Rain = 0
KSM1 241350Z 32010KT 10/M00 A3006 RMK A01 T00961001  RH  051%=      5-min Rain = 0
KSM1 241355Z 32009KT 10/M01 A3007 RMK A01 T01001010  RH  047%=      5-min Rain = 0
KSM1 241400Z 33008KT 11/M02 A3007 RMK A01 T01061020  RH  042%=      5-min Rain = 0
KSM1 241405Z 33008KT 11/M03 A3007 RMK A01 T01101032  RH  037%=      5-min Rain = 0
KSM1 241410Z 33007KT 11/M03 A3007 RMK A01 T01121032  RH  036%=      5-min Rain = 0
KSM1 241415Z 33007KT 12/M03 A3007 RMK A01 T01161032  RH  036%=      5-min Rain = 0
KSM1 241420Z 34009KT 12/M04 A3008 RMK A01 T01201035  RH  034%=      5-min Rain = 0
KSM1 241425Z 35009KT 12/M03 A3008 RMK A01 T01221032  RH  034%=      5-min Rain = 0
KSM1 241430Z 00007KT 12/M03 A3008 RMK A01 T01211027  RH  036%=      5-min Rain = 0
KSM1 241435Z 01008KT 12/M02 A3008 RMK A01 T01231024  RH  036%=      5-min Rain = 0
KSM1 241440Z 00008KT 13/M03 A3008 RMK A01 T01251025  RH  036%=      5-min Rain = 0
KSM1 241445Z 36006KT 13/M02 A3009 RMK A01 T01271023  RH  035%=      5-min Rain = 0
KSM1 241450Z 01005KT 13/M02 A3009 RMK A01 T01321022  RH  035%=      5-min Rain = 0
KSM1 241455Z 00005KT 14/M02 A3009 RMK A01 T01351018  RH  035%=      5-min Rain = 0
KSM1 241500Z 01005KT 14/M02 A3009 RMK A01 T01381018  RH  034%=      5-min Rain = 0
KSM1 241505Z 01005KT 14/M02 A3009 RMK A01 T01391021  RH  033%=      5-min Rain = 0
KSM1 241510Z 03004KT 14/M02 A3009 RMK A01 T01411015  RH  034%=      5-min Rain = 0
KSM1 241515Z 02004KT 14/M01 A301 RMK A01 T01421013  RH  035%=      5-min Rain = 0
KSM1 241520Z 02004KT 14/M01 A301 RMK A01 T01441013  RH  034%=      5-min Rain = 0
KSM1 241525Z 00004KT 15/M01 A301 RMK A01 T01451013  RH  034%=      5-min Rain = 0
KSM1 241530Z 00004KT 15/M01 A301 RMK A01 T01461014  RH  034%=      5-min Rain = 0
KSM1 241535Z 00004KT 15/M01 A301 RMK A01 T01491014  RH  033%=      5-min Rain = 0
KSM1 241540Z 35004KT 15/M02 A301 RMK A01 T01531015  RH  032%=      5-min Rain = 0
KSM1 241545Z 35005KT 16/M02 A301 RMK A01 T01551015  RH  031%=      5-min Rain = 0
KSM1 241550Z 35005KT 16/M02 A301 RMK A01 T01571017  RH  031%=      5-min Rain = 0
KSM1 241555Z 36005KT 16/M02 A301 RMK A01 T01601016  RH  030%=      5-min Rain = 0
KSM1 241600Z 36005KT 16/M01 A301 RMK A01 T01631014  RH  030%=      5-min Rain = 0
KSM1 241605Z 01005KT 16/M01 A301 RMK A01 T01641013  RH  030%=      5-min Rain = 0
KSM1 241610Z 03005KT 17/M01 A301 RMK A01 T01661012  RH  030%=      5-min Rain = 0
KSM1 241615Z 03003KT 17/M01 A301 RMK A01 T01691013  RH  029%=      5-min Rain = 0
KSM1 241620Z 02004KT 17/M02 A301 RMK A01 T01711016  RH  028%=      5-min Rain = 0
KSM1 241625Z 36002KT 17/M02 A301 RMK A01 T01711017  RH  028%=      5-min Rain = 0
KSM1 241630Z 34003KT 17/M02 A3011 RMK A01 T01741020  RH  027%=      5-min Rain = 0
KSM1 241635Z 03004KT 18/M02 A3011 RMK A01 T01771018  RH  027%=      5-min Rain = 0
KSM1 241640Z 03004KT 18/M02 A3011 RMK A01 T01781017  RH  027%=      5-min Rain = 0
KSM1 241645Z 36004KT 18/M02 A3011 RMK A01 T01781019  RH  026%=      5-min Rain = 0
KSM1 241650Z 04004KT 18/M02 A3011 RMK A01 T01811018  RH  026%=      5-min Rain = 0
KSM1 241655Z 04005KT 18/M02 A3011 RMK A01 T01841019  RH  025%=      5-min Rain = 0
KSM1 241700Z 03005KT 18/M02 A3011 RMK A01 T01841021  RH  025%=      5-min Rain = 0
KSM1 241705Z 04004KT 19/M02 A3011 RMK A01 T01851021  RH  025%=      5-min Rain = 0
KSM1 241710Z 02005KT 19/M02 A301 RMK A01 T01871019  RH  025%=      5-min Rain = 0
KSM1 241715Z 03004KT 19/M02 A301 RMK A01 T01871022  RH  024%=      5-min Rain = 0
KSM1 241720Z 01001KT 19/M02 A301 RMK A01 T01891022  RH  024%=      5-min Rain = 0
KSM1 241725Z 35003KT 19/M02 A3011 RMK A01 T01921023  RH  023%=      5-min Rain = 0
KSM1 241730Z 28002KT 19/M02 A301 RMK A01 T01921023  RH  023%=      5-min Rain = 0
KSM1 241735Z 07002KT 20/M02 A3011 RMK A01 T01981023  RH  023%=      5-min Rain = 0
KSM1 241740Z 11003KT 20/M02 A3011 RMK A01 T01981024  RH  022%=      5-min Rain = 0
KSM1 241745Z 15002KT 20/M02 A3011 RMK A01 T01991023  RH  022%=      5-min Rain = 0
KSM1 241750Z 19002KT 20/M02 A3011 RMK A01 T02011023  RH  022%=      5-min Rain = 0
KSM1 241755Z 28001KT 21/M02 A3011 RMK A01 T02061022  RH  022%=      5-min Rain = 0
KSM1 241800Z 34003KT 21/M02 A301 RMK A01 T02101022  RH  021%=      5-min Rain = 0
KSM1 241805Z 33001KT 21/M03 A301 RMK A01 T02061026  RH  021%=      5-min Rain = 0
KSM1 241810Z 02001KT 21/M02 A301 RMK A01 T02091024  RH  021%=      5-min Rain = 0
KSM1 241815Z 14002KT 21/M02 A301 RMK A01 T02101021  RH  021%=      5-min Rain = 0
KSM1 241820Z 20003KT 21/M02 A3009 RMK A01 T02141023  RH  020%=      5-min Rain = 0
KSM1 241825Z 23001KT 21/M03 A3009 RMK A01 T02141030  RH  019%=      5-min Rain = 0
KSM1 241830Z 28001KT 22/M03 A3009 RMK A01 T02151028  RH  020%=      5-min Rain = 0
KSM1 241835Z 26001KT 22/M03 A3008 RMK A01 T02161032  RH  019%=      5-min Rain = 0
KSM1 241840Z 22003KT 22/M03 A3008 RMK A01 T02171031  RH  019%=      5-min Rain = 0
KSM1 241845Z 21004KT 22/M03 A3008 RMK A01 T02241032  RH  018%=      5-min Rain = 0
KSM1 241850Z 23002KT 23/M03 A3008 RMK A01 T02281034  RH  017%=      5-min Rain = 0
KSM1 241855Z 29003KT 23/M04 A3007 RMK A01 T02281038  RH  017%=      5-min Rain = 0
KSM1 241900Z 17001KT 23/M04 A3007 RMK A01 T02261040  RH  017%=      5-min Rain = 0
KSM1 241905Z 00002KT 23/M04 A3007 RMK A01 T02321035  RH  017%=      5-min Rain = 0
KSM1 241910Z 04003KT 23/M04 A3007 RMK A01 T02301039  RH  016%=      5-min Rain = 0
KSM1 241915Z 10001KT 23/M04 A3006 RMK A01 T02311039  RH  016%=      5-min Rain = 0
KSM1 241920Z 32001KT 23/M04 A3006 RMK A01 T02331043  RH  016%=      5-min Rain = 0
KSM1 241925Z 34001KT 24/M05 A3006 RMK A01 T02391045  RH  015%=      5-min Rain = 0
KSM1 241930Z 30003KT 24/M05 A3005 RMK A01 T02421052  RH  014%=      5-min Rain = 0
KSM1 241935Z 22004KT 25/M04 A3005 RMK A01 T02481039  RH  015%=      5-min Rain = 0
KSM1 241940Z 24004G9KT 25/M04 A3005 RMK A01 T02501043  RH  014%=      5-min Rain = 0
KSM1 241945Z 28004KT 25/M05 A3005 RMK A01 T02491050  RH  013%=      5-min Rain = 0
KSM1 241950Z 24004KT 25/M05 A3005 RMK A01 T02451051  RH  014%=      5-min Rain = 0
KSM1 241955Z 19003KT 24/M04 A3004 RMK A01 T02441043  RH  015%=      5-min Rain = 0
KSM1 242000Z 18004G9KT 25/M04 A3004 RMK A01 T02491038  RH  015%=      5-min Rain = 0
KSM1 242005Z 17009KT 25/M03 A3004 RMK A01 T02511031  RH  015%=      5-min Rain = 0
KSM1 242010Z 15008G13KT 25/M04 A3004 RMK A01 T02471042  RH  014%=      5-min Rain = 0
KSM1 242015Z 17006G12KT 25/M04 A3004 RMK A01 T02461044  RH  014%=      5-min Rain = 0
KSM1 242020Z 15003KT 25/M05 A3003 RMK A01 T02461046  RH  014%=      5-min Rain = 0
KSM1 242025Z 18001KT 25/M05 A3003 RMK A01 T02471050  RH  014%=      5-min Rain = 0
KSM1 242030Z 19003KT 25/M05 A3003 RMK A01 T02491048  RH  014%=      5-min Rain = 0
KSM1 242035Z 16010G20KT 25/M04 A3002 RMK A01 T02511042  RH  014%=      5-min Rain = 0
KSM1 242040Z 29009G18KT 25/M06 A3003 RMK A01 T02521057  RH  013%=      5-min Rain = 0
KSM1 242045Z 28009G16KT 25/M08 A3003 RMK A01 T02541075  RH  011%=      5-min Rain = 0
KSM1 242050Z 27011G16KT 25/M08 A3002 RMK A01 T02531080  RH  010%=      5-min Rain = 0
KSM1 242055Z 27011G17KT 26/M08 A3002 RMK A01 T02561080  RH  010%=      5-min Rain = 0
KSM1 242100Z 24011G20KT 26/M08 A3002 RMK A01 T02581083  RH  010%=      5-min Rain = 0
KSM1 242105Z 23010G17KT 26/M08 A3002 RMK A01 T02581078  RH  010%=      5-min Rain = 0
KSM1 242110Z 23012G17KT 26/M07 A3002 RMK A01 T02591074  RH  010%=      5-min Rain = 0
KSM1 242115Z 25012G18KT 26/M08 A3002 RMK A01 T02591079  RH  010%=      5-min Rain = 0
KSM1 242120Z 25009KT 26/M09 A3002 RMK A01 T02561085  RH  010%=      5-min Rain = 0
KSM1 242125Z 25013G19KT 26/M09 A3002 RMK A01 T02561093  RH  009%=      5-min Rain = 0
KSM1 242130Z 25012KT 26/M09 A3002 RMK A01 T02571093  RH  009%=      5-min Rain = 0
KSM1 242135Z 27013G19KT 26/M10 A3002 RMK A01 T02561097  RH  009%=      5-min Rain = 0
KSM1 242140Z 26013G18KT 26/M09 A3002 RMK A01 T02571085  RH  010%=      5-min Rain = 0
KSM1 242145Z 26014G19KT 26/M09 A3002 RMK A01 T02561085  RH  010%=      5-min Rain = 0
KSM1 242150Z 27010KT 26/M08 A3002 RMK A01 T02551082  RH  010%=      5-min Rain = 0
KSM1 242155Z 27009KT 26/M08 A3002 RMK A01 T02551081  RH  010%=      5-min Rain = 0
KSM1 242200Z 27012G21KT 26/M08 A3002 RMK A01 T02581081  RH  010%=      5-min Rain = 0
KSM1 242205Z 25014G19KT 26/M08 A3002 RMK A01 T02571082  RH  010%=      5-min Rain = 0
KSM1 242210Z 26008KT 26/M08 A3002 RMK A01 T02571079  RH  010%=      5-min Rain = 0
KSM1 242215Z 27011G17KT 26/M08 A3002 RMK A01 T02581079  RH  010%=      5-min Rain = 0
KSM1 242220Z 27011G16KT 26/M08 A3002 RMK A01 T02571077  RH  010%=      5-min Rain = 0
KSM1 242225Z 28011G17KT 26/M08 A3001 RMK A01 T02571078  RH  010%=      5-min Rain = 0
KSM1 242230Z 27009G14KT 26/M08 A3001 RMK A01 T02561077  RH  010%=      5-min Rain = 0
KSM1 242235Z 29010G16KT 26/M08 A3001 RMK A01 T02571076  RH  011%=      5-min Rain = 0
KSM1 242240Z 28009G16KT 26/M07 A3001 RMK A01 T02571073  RH  011%=      5-min Rain = 0
KSM1 242245Z 27010KT 26/M08 A3001 RMK A01 T02571076  RH  010%=      5-min Rain = 0
KSM1 242250Z 29008KT 26/M07 A3001 RMK A01 T02561074  RH  011%=      5-min Rain = 0
KSM1 242255Z 28010G16KT 26/M08 A3001 RMK A01 T02571075  RH  011%=      5-min Rain = 0
KSM1 242300Z 28012KT 26/M08 A3001 RMK A01 T02571075  RH  011%=      5-min Rain = 0
KSM1 242305Z 27010KT 26/M07 A3001 RMK A01 T02561073  RH  011%=      5-min Rain = 0
KSM1 242310Z 27009G14KT 25/M08 A3001 RMK A01 T02541076  RH  011%=      5-min Rain = 0
KSM1 242315Z 30006G13KT 26/M07 A3001 RMK A01 T02561074  RH  011%=      5-min Rain = 0
KSM1 242320Z 28008KT 26/M07 A3001 RMK A01 T02561072  RH  011%=      5-min Rain = 0
KSM1 242325Z 27009KT 26/M07 A3001 RMK A01 T02561074  RH  011%=      5-min Rain = 0
KSM1 242330Z 26006KT 26/M07 A3001 RMK A01 T02551072  RH  011%=      5-min Rain = 0
KSM1 242335Z 28009KT 26/M08 A3001 RMK A01 T02551076  RH  011%=      5-min Rain = 0
KSM1 242340Z 29011G16KT 25/M08 A3001 RMK A01 T02531078  RH  011%=      5-min Rain = 0
KSM1 242345Z 29009KT 25/M08 A3002 RMK A01 T02531079  RH  011%=      5-min Rain = 0
KSM1 242350Z 28010KT 25/M08 A3002 RMK A01 T02521079  RH  010%=      5-min Rain = 0
KSM1 242355Z 29008KT 25/M08 A3002 RMK A01 T02511081  RH  010%=      5-min Rain = 0
KSM1 250000Z 29008KT 25/M08 A3002 RMK A01 T02511080  RH  011%=      5-min Rain = 0
KSM1 250005Z 29007KT 25/M08 A3002 RMK A01 T02491082  RH  010%=      5-min Rain = 0
KSM1 250010Z 30006KT 25/M08 A3002 RMK A01 T02491080  RH  011%=      5-min Rain = 0
KSM1 250015Z 32006KT 25/M07 A3002 RMK A01 T02471074  RH  011%=      5-min Rain = 0
KSM1 250020Z 31005KT 25/M07 A3002 RMK A01 T02451070  RH  012%=      5-min Rain = 0
KSM1 250025Z 31005KT 24/M07 A3003 RMK A01 T02421065  RH  012%=      5-min Rain = 0
KSM1 250030Z 30005KT 24/M07 A3003 RMK A01 T02401071  RH  012%=      5-min Rain = 0
KSM1 250035Z 32004KT 24/M06 A3003 RMK A01 T02371063  RH  013%=      5-min Rain = 0
KSM1 250040Z 31004KT 23/M06 A3003 RMK A01 T02321060  RH  014%=      5-min Rain = 0
KSM1 250045Z 29003KT 23/M06 A3003 RMK A01 T02301055  RH  014%=      5-min Rain = 0
KSM1 250050Z 30003KT 23/M06 A3003 RMK A01 T02281058  RH  014%=      5-min Rain = 0
KSM1 250055Z 31004KT 22/M06 A3003 RMK A01 T02241057  RH  015%=      5-min Rain = 0
KSM1 250100Z 31004KT 22/M06 A3003 RMK A01 T02171056  RH  016%=      5-min Rain = 0
KSM1 250105Z 31002KT 21/M05 A3003 RMK A01 T02101052  RH  017%=      5-min Rain = 0
KSM1 250110Z 30002KT 21/M06 A3003 RMK A01 T02071055  RH  017%=      5-min Rain = 0
KSM1 250115Z 30003KT 21/M06 A3003 RMK A01 T02071055  RH  017%=      5-min Rain = 0
KSM1 250120Z 30003KT 20/M05 A3003 RMK A01 T02031051  RH  018%=      5-min Rain = 0
KSM1 250125Z 31004KT 20/M04 A3003 RMK A01 T01971042  RH  020%=      5-min Rain = 0
KSM1 250130Z 32005KT 19/M04 A3004 RMK A01 T01871037  RH  022%=      5-min Rain = 0
KSM1 250135Z 31004KT 18/M04 A3004 RMK A01 T01791039  RH  022%=      5-min Rain = 0
KSM1 250140Z 31003KT 18/M04 A3004 RMK A01 T01801040  RH  022%=      5-min Rain = 0
KSM1 250145Z 30003KT 19/M05 A3004 RMK A01 T01851047  RH  020%=      5-min Rain = 0
KSM1 250150Z 32004KT 19/M04 A3004 RMK A01 T01881043  RH  021%=      5-min Rain = 0
KSM1 250155Z 33004KT 18/M03 A3005 RMK A01 T01811034  RH  023%=      5-min Rain = 0
KSM1 250200Z 33004KT 18/M03 A3005 RMK A01 T01751027  RH  025%=      5-min Rain = 0
KSM1 250205Z 33005KT 17/M02 A3005 RMK A01 T01691023  RH  027%=      5-min Rain = 0
KSM1 250210Z 33005KT 17/M03 A3005 RMK A01 T01671026  RH  027%=      5-min Rain = 0
KSM1 250215Z 33004KT 17/M03 A3005 RMK A01 T01661028  RH  026%=      5-min Rain = 0
KSM1 250220Z 33003KT 17/M02 A3006 RMK A01 T01651022  RH  028%=      5-min Rain = 0
KSM1 250225Z 33003KT 16/M02 A3006 RMK A01 T01621019  RH  029%=      5-min Rain = 0
KSM1 250230Z 33001KT 16/M02 A3006 RMK A01 T01561015  RH  031%=      5-min Rain = 0
KSM1 250235Z 12002KT 14/M02 A3007 RMK A01 T01411018  RH  034%=      5-min Rain = 0
KSM1 250240Z 12001KT 14/M02 A3007 RMK A01 T01351022  RH  034%=      5-min Rain = 0
KSM1 250245Z 12002KT 13/M03 A3007 RMK A01 T01331025  RH  034%=      5-min Rain = 0
KSM1 250250Z 13001KT 13/M03 A3007 RMK A01 T01341027  RH  033%=      5-min Rain = 0
KSM1 250255Z 13000KT 14/M03 A3008 RMK A01 T01361026  RH  033%=      5-min Rain = 0
KSM1 250300Z 00000KT 14/M03 A3008 RMK A01 T01371026  RH  033%=      5-min Rain = 0
KSM1 250305Z 13000KT 14/M02 A3008 RMK A01 T01431020  RH  033%=      5-min Rain = 0
KSM1 250310Z 14001KT 14/M01 A3008 RMK A01 T01431013  RH  034%=      5-min Rain = 0
KSM1 250315Z 22000KT 14/M02 A3009 RMK A01 T01431017  RH  033%=      5-min Rain = 0
KSM1 250320Z 30001KT 14/M01 A3009 RMK A01 T01421012  RH  035%=      5-min Rain = 0
KSM1 250325Z 35004KT 13/M01 A3009 RMK A01 T01281009  RH  039%=      5-min Rain = 0
KSM1 250330Z 01007KT 12/M03 A301 RMK A01 T01231029  RH  035%=      5-min Rain = 0
KSM1 250335Z 02006KT 13/M03 A301 RMK A01 T01291034  RH  032%=      5-min Rain = 0
KSM1 250340Z 01007KT 13/M03 A301 RMK A01 T01251034  RH  033%=      5-min Rain = 0
KSM1 250345Z 02007KT 13/M03 A301 RMK A01 T01271033  RH  033%=      5-min Rain = 0
KSM1 250350Z 03006KT 12/M03 A3011 RMK A01 T01241034  RH  033%=      5-min Rain = 0
KSM1 250355Z 05006KT 13/M04 A3011 RMK A01 T01271035  RH  032%=      5-min Rain = 0
KSM1 250400Z 05006KT 13/M03 A3011 RMK A01 T01311033  RH  032%=      5-min Rain = 0
KSM1 250405Z 06006KT 13/M03 A3011 RMK A01 T01301028  RH  033%=      5-min Rain = 0
KSM1 250410Z 06005KT 13/M03 A3011 RMK A01 T01311029  RH  033%=      5-min Rain = 0
KSM1 250415Z 03004KT 13/M02 A3011 RMK A01 T01321023  RH  034%=      5-min Rain = 0
KSM1 250420Z 04004KT 13/M02 A3011 RMK A01 T01251022  RH  036%=      5-min Rain = 0
KSM1 250425Z 06005KT 13/M03 A3011 RMK A01 T01261026  RH  035%=      5-min Rain = 0
KSM1 250430Z 04003KT 13/M02 A3012 RMK A01 T01271021  RH  036%=      5-min Rain = 0
KSM1 250435Z 05003KT 13/M02 A3012 RMK A01 T01281023  RH  035%=      5-min Rain = 0
KSM1 250440Z 06004KT 13/M02 A3012 RMK A01 T01311019  RH  036%=      5-min Rain = 0
KSM1 250445Z 05003KT 11/M01 A3012 RMK A01 T01111007  RH  045%=      5-min Rain = 0
KSM1 250450Z 06004KT 11/M01 A3012 RMK A01 T01081012  RH  044%=      5-min Rain = 0
KSM1 250455Z 04004KT 11/M01 A3012 RMK A01 T01101007  RH  045%=      5-min Rain = 0

Page generated in 0.0088 seconds.